sensor_id;sensor_type;location;lat;lon;timestamp;pressure;altitude;pressure_sealevel;temperature;humidity
63321;BME280;49449;48.800;9.534;2022-12-07T00:01:05;98616.78;;;5.31;45.12
63321;BME280;49449;48.800;9.534;2022-12-07T00:03:34;98618.59;;;5.30;45.96
63321;BME280;49449;48.800;9.534;2022-12-07T00:06:03;98619.22;;;5.32;45.39
63321;BME280;49449;48.800;9.534;2022-12-07T00:08:32;98617.19;;;5.35;45.62
63321;BME280;49449;48.800;9.534;2022-12-07T00:11:01;98618.84;;;5.36;44.98
63321;BME280;49449;48.800;9.534;2022-12-07T00:13:29;98614.59;;;5.35;44.82
63321;BME280;49449;48.800;9.534;2022-12-07T00:16:00;98615.97;;;5.30;45.33
63321;BME280;49449;48.800;9.534;2022-12-07T00:18:30;98617.19;;;5.35;45.78
63321;BME280;49449;48.800;9.534;2022-12-07T00:21:01;98618.66;;;5.37;45.82
63321;BME280;49449;48.800;9.534;2022-12-07T00:23:29;98619.44;;;5.38;45.95
63321;BME280;49449;48.800;9.534;2022-12-07T00:26:03;98612.56;;;5.37;45.34
63321;BME280;49449;48.800;9.534;2022-12-07T00:28:31;98618.66;;;5.37;45.39
63321;BME280;49449;48.800;9.534;2022-12-07T00:31:02;98621.88;;;5.39;45.68
63321;BME280;49449;48.800;9.534;2022-12-07T00:33:32;98611.59;;;5.38;45.59
63321;BME280;49449;48.800;9.534;2022-12-07T00:36:00;98610.13;;;5.35;45.26
63321;BME280;49449;48.800;9.534;2022-12-07T00:38:30;98607.34;;;5.37;46.08
63321;BME280;49449;48.800;9.534;2022-12-07T00:40:59;98612.75;;;5.28;46.40
63321;BME280;49449;48.800;9.534;2022-12-07T00:43:28;98607.94;;;5.32;46.63
63321;BME280;49449;48.800;9.534;2022-12-07T00:45:56;98606.53;;;5.36;46.24
63321;BME280;49449;48.800;9.534;2022-12-07T00:48:25;98607.34;;;5.37;45.07
63321;BME280;49449;48.800;9.534;2022-12-07T00:50:54;98603.84;;;5.29;45.24
63321;BME280;49449;48.800;9.534;2022-12-07T00:53:22;98606.97;;;5.11;45.31
63321;BME280;49449;48.800;9.534;2022-12-07T00:55:50;98600.94;;;5.11;45.40
63321;BME280;49449;48.800;9.534;2022-12-07T00:58:19;98602.59;;;5.19;45.12
63321;BME280;49449;48.800;9.534;2022-12-07T01:00:47;98607.06;;;5.25;45.63
63321;BME280;49449;48.800;9.534;2022-12-07T01:03:15;98612.09;;;5.26;46.02
63321;BME280;49449;48.800;9.534;2022-12-07T01:05:49;98612.50;;;5.23;45.70
63321;BME280;49449;48.800;9.534;2022-12-07T01:08:18;98614.72;;;5.26;45.99
63321;BME280;49449;48.800;9.534;2022-12-07T01:10:46;98613.72;;;5.27;45.75
63321;BME280;49449;48.800;9.534;2022-12-07T01:13:15;98613.16;;;5.32;46.04
63321;BME280;49449;48.800;9.534;2022-12-07T01:15:44;98609.53;;;5.33;45.87
63321;BME280;49449;48.800;9.534;2022-12-07T01:18:11;98614.59;;;5.35;45.94
63321;BME280;49449;48.800;9.534;2022-12-07T01:20:39;98618.66;;;5.37;46.10
63321;BME280;49449;48.800;9.534;2022-12-07T01:23:07;98615.00;;;5.38;46.06
63321;BME280;49449;48.800;9.534;2022-12-07T01:25:36;98623.47;;;5.40;46.16
63321;BME280;49449;48.800;9.534;2022-12-07T01:28:04;98624.50;;;5.39;46.18
63321;BME280;49449;48.800;9.534;2022-12-07T01:30:32;98621.44;;;5.36;46.04
63321;BME280;49449;48.800;9.534;2022-12-07T01:32:59;98627.06;;;5.32;47.26
63321;BME280;49449;48.800;9.534;2022-12-07T01:35:27;98627.69;;;5.35;46.30
63321;BME280;49449;48.800;9.534;2022-12-07T01:37:55;98622.44;;;5.35;46.45
63321;BME280;49449;48.800;9.534;2022-12-07T01:40:22;98623.47;;;5.33;46.09
63321;BME280;49449;48.800;9.534;2022-12-07T01:42:51;98631.69;;;5.30;45.63
63321;BME280;49449;48.800;9.534;2022-12-07T01:45:37;98627.25;;;5.31;45.85
63321;BME280;49449;48.800;9.534;2022-12-07T01:48:05;98623.66;;;5.32;45.33
63321;BME280;49449;48.800;9.534;2022-12-07T01:50:35;98627.25;;;5.31;45.45
63321;BME280;49449;48.800;9.534;2022-12-07T01:53:05;98624.81;;;5.29;44.97
63321;BME280;49449;48.800;9.534;2022-12-07T01:55:39;98629.44;;;5.27;44.69
63321;BME280;49449;48.800;9.534;2022-12-07T01:58:09;98632.38;;;5.18;44.61
63321;BME280;49449;48.800;9.534;2022-12-07T02:00:38;98633.22;;;5.18;45.12
63321;BME280;49449;48.800;9.534;2022-12-07T02:03:09;98622.53;;;5.20;45.00
63321;BME280;49449;48.800;9.534;2022-12-07T02:05:40;98637.50;;;5.26;44.86
63321;BME280;49449;48.800;9.534;2022-12-07T02:08:09;98637.91;;;5.29;45.08
63321;BME280;49449;48.800;9.534;2022-12-07T02:10:39;98628.84;;;5.25;44.63
63321;BME280;49449;48.800;9.534;2022-12-07T02:13:12;98634.69;;;5.27;44.57
63321;BME280;49449;48.800;9.534;2022-12-07T02:15:47;98640.28;;;5.24;44.43
63321;BME280;49449;48.800;9.534;2022-12-07T02:18:23;98637.88;;;5.23;43.23
63321;BME280;49449;48.800;9.534;2022-12-07T02:20:58;98633.22;;;5.18;44.01
63321;BME280;49449;48.800;9.534;2022-12-07T02:23:40;98630.16;;;5.14;44.04
63321;BME280;49449;48.800;9.534;2022-12-07T02:26:27;98631.53;;;5.10;43.95
63321;BME280;49449;48.800;9.534;2022-12-07T02:29:11;98621.25;;;5.09;43.58
63321;BME280;49449;48.800;9.534;2022-12-07T02:31:45;98623.09;;;5.15;43.43
63321;BME280;49449;48.800;9.534;2022-12-07T02:34:20;98622.50;;;5.13;43.85
63321;BME280;49449;48.800;9.534;2022-12-07T02:36:54;98626.81;;;4.99;43.59
63321;BME280;49449;48.800;9.534;2022-12-07T02:39:30;98617.91;;;4.93;43.99
63321;BME280;49449;48.800;9.534;2022-12-07T02:42:02;98615.28;;;4.93;44.35
63321;BME280;49449;48.800;9.534;2022-12-07T02:44:33;98617.91;;;4.93;44.26
63321;BME280;49449;48.800;9.534;2022-12-07T02:47:04;98619.72;;;4.93;44.53
63321;BME280;49449;48.800;9.534;2022-12-07T02:49:33;98614.34;;;5.01;44.25
63321;BME280;49449;48.800;9.534;2022-12-07T02:52:03;98616.59;;;5.04;44.34
63321;BME280;49449;48.800;9.534;2022-12-07T02:54:30;98612.56;;;5.08;44.28
63321;BME280;49449;48.800;9.534;2022-12-07T02:57:04;98607.72;;;5.05;44.17
63321;BME280;49449;48.800;9.534;2022-12-07T02:59:48;98608.47;;;4.99;44.39
63321;BME280;49449;48.800;9.534;2022-12-07T03:02:25;98599.94;;;4.90;43.90
63321;BME280;49449;48.800;9.534;2022-12-07T03:05:07;98598.25;;;4.83;43.45
63321;BME280;49449;48.800;9.534;2022-12-07T03:07:43;98597.75;;;4.72;43.68
63321;BME280;49449;48.800;9.534;2022-12-07T03:10:19;98602.38;;;4.70;44.34
63321;BME280;49449;48.800;9.534;2022-12-07T03:12:57;98596.38;;;4.76;44.52
63321;BME280;49449;48.800;9.534;2022-12-07T03:15:33;98592.19;;;4.82;44.54
63321;BME280;49449;48.800;9.534;2022-12-07T03:18:04;98599.13;;;4.90;44.49
63321;BME280;49449;48.800;9.534;2022-12-07T03:20:34;98597.56;;;4.95;44.64
63321;BME280;49449;48.800;9.534;2022-12-07T03:23:04;98597.03;;;5.00;44.53
63321;BME280;49449;48.800;9.534;2022-12-07T03:25:35;98602.25;;;5.00;44.53
63321;BME280;49449;48.800;9.534;2022-12-07T03:28:07;98597.81;;;5.01;44.19
63321;BME280;49449;48.800;9.534;2022-12-07T03:30:42;98600.19;;;4.95;44.28
63321;BME280;49449;48.800;9.534;2022-12-07T03:33:17;98598.81;;;5.00;44.74
63321;BME280;49449;48.800;9.534;2022-12-07T03:35:51;98601.06;;;5.03;44.59
63321;BME280;49449;48.800;9.534;2022-12-07T03:38:28;98588.75;;;5.03;44.45
63321;BME280;49449;48.800;9.534;2022-12-07T03:41:00;98595.25;;;5.07;44.93
63321;BME280;49449;48.800;9.534;2022-12-07T03:43:30;98596.66;;;5.10;44.49
63321;BME280;49449;48.800;9.534;2022-12-07T03:46:07;98589.41;;;5.05;44.74
63321;BME280;49449;48.800;9.534;2022-12-07T03:48:42;98599.22;;;4.97;44.11
63321;BME280;49449;48.800;9.534;2022-12-07T03:51:18;98596.69;;;4.88;44.92
63321;BME280;49449;48.800;9.534;2022-12-07T03:53:51;98595.56;;;4.98;44.82
63321;BME280;49449;48.800;9.534;2022-12-07T03:56:20;98598.63;;;5.01;44.61
63321;BME280;49449;48.800;9.534;2022-12-07T03:58:49;98591.38;;;5.03;44.68
63321;BME280;49449;48.800;9.534;2022-12-07T04:01:19;98594.59;;;4.99;44.01
63321;BME280;49449;48.800;9.534;2022-12-07T04:03:46;98591.06;;;4.70;43.80
63321;BME280;49449;48.800;9.534;2022-12-07T04:06:14;98593.94;;;4.53;43.81
63321;BME280;49449;48.800;9.534;2022-12-07T04:08:42;98585.41;;;4.45;43.74
63321;BME280;49449;48.800;9.534;2022-12-07T04:11:10;98585.16;;;4.39;44.03
63321;BME280;49449;48.800;9.534;2022-12-07T04:13:37;98584.72;;;4.36;44.02
63321;BME280;49449;48.800;9.534;2022-12-07T04:16:20;98585.94;;;4.18;44.53
63321;BME280;49449;48.800;9.534;2022-12-07T04:18:48;98577.22;;;4.33;44.59
63321;BME280;49449;48.800;9.534;2022-12-07T04:21:16;98580.34;;;4.43;44.38
63321;BME280;49449;48.800;9.534;2022-12-07T04:23:44;98576.69;;;4.37;44.23
63321;BME280;49449;48.800;9.534;2022-12-07T04:26:11;98587.47;;;4.28;44.16
63321;BME280;49449;48.800;9.534;2022-12-07T04:28:39;98587.22;;;4.23;44.64
63321;BME280;49449;48.800;9.534;2022-12-07T04:31:07;98585.84;;;4.27;44.68
63321;BME280;49449;48.800;9.534;2022-12-07T04:33:36;98573.00;;;4.32;44.64
63321;BME280;49449;48.800;9.534;2022-12-07T04:36:05;98564.09;;;4.26;44.37
63321;BME280;49449;48.800;9.534;2022-12-07T04:38:33;98558.91;;;4.11;44.12
63321;BME280;49449;48.800;9.534;2022-12-07T04:41:04;98560.38;;;3.99;44.50
63321;BME280;49449;48.800;9.534;2022-12-07T04:43:32;98548.09;;;3.63;45.12
63321;BME280;49449;48.800;9.534;2022-12-07T04:45:59;98537.50;;;2.82;46.63
63321;BME280;49449;48.800;9.534;2022-12-07T04:48:27;98524.16;;;2.62;47.38
63321;BME280;49449;48.800;9.534;2022-12-07T04:50:56;98525.66;;;3.09;46.45
63321;BME280;49449;48.800;9.534;2022-12-07T04:53:24;98530.19;;;3.45;45.58
63321;BME280;49449;48.800;9.534;2022-12-07T04:55:52;98524.94;;;3.60;44.71
63321;BME280;49449;48.800;9.534;2022-12-07T04:58:19;98537.13;;;3.68;44.21
63321;BME280;49449;48.800;9.534;2022-12-07T05:00:47;98542.34;;;3.68;44.62
63321;BME280;49449;48.800;9.534;2022-12-07T05:03:15;98547.19;;;3.71;43.95
63321;BME280;49449;48.800;9.534;2022-12-07T05:05:43;98545.28;;;3.79;43.95
63321;BME280;49449;48.800;9.534;2022-12-07T05:08:12;98543.84;;;3.77;44.04
63321;BME280;49449;48.800;9.534;2022-12-07T05:10:40;98532.38;;;3.78;44.37
63321;BME280;49449;48.800;9.534;2022-12-07T05:13:07;98532.13;;;3.88;44.02
63321;BME280;49449;48.800;9.534;2022-12-07T05:15:35;98522.19;;;3.98;43.78
63321;BME280;49449;48.800;9.534;2022-12-07T05:18:03;98528.03;;;4.00;43.28
63321;BME280;49449;48.800;9.534;2022-12-07T05:20:31;98530.28;;;4.03;43.78
63321;BME280;49449;48.800;9.534;2022-12-07T05:23:00;98560.09;;;4.09;44.72
63321;BME280;49449;48.800;9.534;2022-12-07T05:25:30;98562.97;;;4.14;45.15
63321;BME280;49449;48.800;9.534;2022-12-07T05:27:58;98550.34;;;4.17;44.98
63321;BME280;49449;48.800;9.534;2022-12-07T05:30:26;98550.19;;;4.26;44.58
63321;BME280;49449;48.800;9.534;2022-12-07T05:32:54;98555.69;;;4.31;44.25
63321;BME280;49449;48.800;9.534;2022-12-07T05:35:22;98574.44;;;4.34;44.25
63321;BME280;49449;48.800;9.534;2022-12-07T05:37:50;98563.00;;;4.35;44.37
63321;BME280;49449;48.800;9.534;2022-12-07T05:40:18;98554.97;;;4.37;44.17
63321;BME280;49449;48.800;9.534;2022-12-07T05:42:47;98558.38;;;4.37;44.04
63321;BME280;49449;48.800;9.534;2022-12-07T05:45:15;98559.59;;;4.42;43.92
63321;BME280;49449;48.800;9.534;2022-12-07T05:47:42;98567.59;;;4.33;43.58
63321;BME280;49449;48.800;9.534;2022-12-07T05:50:10;98564.84;;;4.20;43.93
63321;BME280;49449;48.800;9.534;2022-12-07T05:52:38;98567.94;;;4.09;43.96
63321;BME280;49449;48.800;9.534;2022-12-07T05:55:06;98569.84;;;4.00;45.25
63321;BME280;49449;48.800;9.534;2022-12-07T05:57:34;98569.75;;;4.08;44.35
63321;BME280;49449;48.800;9.534;2022-12-07T06:00:04;98572.59;;;4.13;44.29
63321;BME280;49449;48.800;9.534;2022-12-07T06:02:31;98570.25;;;4.18;44.58
63321;BME280;49449;48.800;9.534;2022-12-07T06:04:59;98570.69;;;4.22;44.32
63321;BME280;49449;48.800;9.534;2022-12-07T06:07:27;98572.13;;;4.25;44.30
63321;BME280;49449;48.800;9.534;2022-12-07T06:09:54;98571.34;;;4.24;44.33
63321;BME280;49449;48.800;9.534;2022-12-07T06:12:22;98566.72;;;4.26;44.39
63321;BME280;49449;48.800;9.534;2022-12-07T06:15:01;98572.56;;;4.28;44.65
63321;BME280;49449;48.800;9.534;2022-12-07T06:17:30;98576.78;;;4.29;44.63
63321;BME280;49449;48.800;9.534;2022-12-07T06:19:58;98578.88;;;4.34;44.38
63321;BME280;49449;48.800;9.534;2022-12-07T06:22:26;98580.06;;;4.31;44.20
63321;BME280;49449;48.800;9.534;2022-12-07T06:24:53;98586.72;;;4.34;44.07
63321;BME280;49449;48.800;9.534;2022-12-07T06:27:21;98590.97;;;4.35;44.33
63321;BME280;49449;48.800;9.534;2022-12-07T06:29:49;98585.72;;;4.35;44.67
63321;BME280;49449;48.800;9.534;2022-12-07T06:32:17;98584.03;;;4.27;43.90
63321;BME280;49449;48.800;9.534;2022-12-07T06:34:46;98579.19;;;4.09;43.89
63321;BME280;49449;48.800;9.534;2022-12-07T06:37:14;98584.25;;;4.11;43.64
63321;BME280;49449;48.800;9.534;2022-12-07T06:39:41;98583.09;;;3.98;44.20
63321;BME280;49449;48.800;9.534;2022-12-07T06:42:09;98576.25;;;3.97;44.11
63321;BME280;49449;48.800;9.534;2022-12-07T06:44:37;98577.06;;;3.98;43.81
63321;BME280;49449;48.800;9.534;2022-12-07T06:47:04;98573.63;;;3.97;43.86
63321;BME280;49449;48.800;9.534;2022-12-07T06:49:55;98580.75;;;4.04;43.55
63321;BME280;49449;48.800;9.534;2022-12-07T06:52:23;98596.00;;;4.00;44.21
63321;BME280;49449;48.800;9.534;2022-12-07T06:54:51;98588.25;;;4.07;44.48
63321;BME280;49449;48.800;9.534;2022-12-07T06:57:18;98598.97;;;4.12;44.21
63321;BME280;49449;48.800;9.534;2022-12-07T06:59:46;98598.75;;;4.13;44.27
63321;BME280;49449;48.800;9.534;2022-12-07T07:02:14;98594.44;;;4.06;43.92
63321;BME280;49449;48.800;9.534;2022-12-07T07:04:42;98601.84;;;4.02;44.06
63321;BME280;49449;48.800;9.534;2022-12-07T07:07:11;98602.84;;;4.01;44.05
63321;BME280;49449;48.800;9.534;2022-12-07T07:09:38;98594.81;;;4.03;44.21
63321;BME280;49449;48.800;9.534;2022-12-07T07:12:06;98588.69;;;4.10;44.17
63321;BME280;49449;48.800;9.534;2022-12-07T07:14:34;98590.59;;;4.02;43.38
63321;BME280;49449;48.800;9.534;2022-12-07T07:17:02;98598.88;;;3.90;43.84
63321;BME280;49449;48.800;9.534;2022-12-07T07:19:29;98592.84;;;3.90;43.96
63321;BME280;49449;48.800;9.534;2022-12-07T07:21:57;98596.00;;;3.85;44.13
63321;BME280;49449;48.800;9.534;2022-12-07T07:24:26;98601.22;;;3.85;43.89
63321;BME280;49449;48.800;9.534;2022-12-07T07:26:54;98599.91;;;3.89;44.22
63321;BME280;49449;48.800;9.534;2022-12-07T07:29:22;98603.94;;;3.92;44.79
63321;BME280;49449;48.800;9.534;2022-12-07T07:31:49;98600.59;;;3.98;44.64
63321;BME280;49449;48.800;9.534;2022-12-07T07:34:17;98606.91;;;4.04;44.90
63321;BME280;49449;48.800;9.534;2022-12-07T07:36:45;98608.59;;;4.11;44.96
63321;BME280;49449;48.800;9.534;2022-12-07T07:39:13;98605.25;;;4.17;45.38
63321;BME280;49449;48.800;9.534;2022-12-07T07:41:42;98602.03;;;4.15;44.43
63321;BME280;49449;48.800;9.534;2022-12-07T07:44:09;98604.88;;;4.20;44.64
63321;BME280;49449;48.800;9.534;2022-12-07T07:46:37;98612.00;;;4.27;44.40
63321;BME280;49449;48.800;9.534;2022-12-07T07:49:05;98608.56;;;4.26;44.03
63321;BME280;49449;48.800;9.534;2022-12-07T07:51:33;98607.88;;;4.17;44.14
63321;BME280;49449;48.800;9.534;2022-12-07T07:54:00;98618.78;;;4.06;43.73
63321;BME280;49449;48.800;9.534;2022-12-07T07:56:28;98621.97;;;4.02;44.20
63321;BME280;49449;48.800;9.534;2022-12-07T07:58:57;98614.38;;;4.07;44.05
63321;BME280;49449;48.800;9.534;2022-12-07T08:01:25;98616.81;;;4.08;44.26
63321;BME280;49449;48.800;9.534;2022-12-07T08:03:52;98617.72;;;4.00;44.32
63321;BME280;49449;48.800;9.534;2022-12-07T08:06:20;98617.44;;;3.95;44.07
63321;BME280;49449;48.800;9.534;2022-12-07T08:08:49;98619.34;;;4.02;44.27
63321;BME280;49449;48.800;9.534;2022-12-07T08:11:17;98615.53;;;4.04;44.28
63321;BME280;49449;48.800;9.534;2022-12-07T08:13:46;98617.88;;;4.14;43.98
63321;BME280;49449;48.800;9.534;2022-12-07T08:16:15;98622.94;;;4.15;43.74
63321;BME280;49449;48.800;9.534;2022-12-07T08:18:43;98625.91;;;4.12;42.96
63321;BME280;49449;48.800;9.534;2022-12-07T08:21:13;98624.22;;;3.90;42.37
63321;BME280;49449;48.800;9.534;2022-12-07T08:23:41;98623.69;;;3.94;42.97
63321;BME280;49449;48.800;9.534;2022-12-07T08:26:10;98618.50;;;4.16;43.56
63321;BME280;49449;48.800;9.534;2022-12-07T08:28:38;98625.69;;;4.29;43.37
63321;BME280;49449;48.800;9.534;2022-12-07T08:31:08;98620.00;;;4.40;45.31
63321;BME280;49449;48.800;9.534;2022-12-07T08:33:39;98625.72;;;4.50;46.34
63321;BME280;49449;48.800;9.534;2022-12-07T08:36:08;98615.69;;;4.54;44.75
63321;BME280;49449;48.800;9.534;2022-12-07T08:38:38;98623.97;;;4.57;46.12
63321;BME280;49449;48.800;9.534;2022-12-07T08:41:06;98618.44;;;4.67;45.34
63321;BME280;49449;48.800;9.534;2022-12-07T08:43:35;98623.50;;;4.69;46.97
63321;BME280;49449;48.800;9.534;2022-12-07T08:46:09;98627.09;;;4.68;44.26
63321;BME280;49449;48.800;9.534;2022-12-07T08:48:41;98624.38;;;4.76;46.44
63321;BME280;49449;48.800;9.534;2022-12-07T08:51:11;98619.56;;;4.80;43.16
63321;BME280;49449;48.800;9.534;2022-12-07T08:53:39;98610.88;;;4.57;43.33
63321;BME280;49449;48.800;9.534;2022-12-07T08:56:07;98614.94;;;4.60;44.24
63321;BME280;49449;48.800;9.534;2022-12-07T08:58:37;98624.88;;;4.65;42.10
63321;BME280;49449;48.800;9.534;2022-12-07T09:01:05;98623.31;;;4.70;44.09
63321;BME280;49449;48.800;9.534;2022-12-07T09:03:33;98622.72;;;4.75;44.56
63321;BME280;49449;48.800;9.534;2022-12-07T09:06:02;98617.56;;;4.82;45.32
63321;BME280;49449;48.800;9.534;2022-12-07T09:08:33;98624.78;;;4.80;43.59
63321;BME280;49449;48.800;9.534;2022-12-07T09:11:02;98616.59;;;4.89;42.19
63321;BME280;49449;48.800;9.534;2022-12-07T09:13:30;98616.28;;;4.92;42.78
63321;BME280;49449;48.800;9.534;2022-12-07T09:15:58;98617.63;;;4.88;39.33
63321;BME280;49449;48.800;9.534;2022-12-07T09:18:25;98610.69;;;4.59;39.09
63321;BME280;49449;48.800;9.534;2022-12-07T09:20:53;98609.16;;;4.65;39.06
63321;BME280;49449;48.800;9.534;2022-12-07T09:23:23;98612.91;;;4.77;39.21
63321;BME280;49449;48.800;9.534;2022-12-07T09:25:51;98613.78;;;4.84;39.75
63321;BME280;49449;48.800;9.534;2022-12-07T09:28:19;98615.97;;;4.81;39.96
63321;BME280;49449;48.800;9.534;2022-12-07T09:30:47;98619.44;;;4.88;39.73
63321;BME280;49449;48.800;9.534;2022-12-07T09:33:35;98618.63;;;4.87;39.67
63321;BME280;49449;48.800;9.534;2022-12-07T09:36:04;98611.09;;;4.77;38.43
63321;BME280;49449;48.800;9.534;2022-12-07T09:38:34;98612.56;;;4.87;37.77
63321;BME280;49449;48.800;9.534;2022-12-07T09:41:04;98615.13;;;5.02;39.25
63321;BME280;49449;48.800;9.534;2022-12-07T09:43:35;98619.25;;;5.11;39.14
63321;BME280;49449;48.800;9.534;2022-12-07T09:46:03;98612.25;;;5.18;38.63
63321;BME280;49449;48.800;9.534;2022-12-07T09:48:33;98609.47;;;5.26;39.61
63321;BME280;49449;48.800;9.534;2022-12-07T09:51:13;98609.16;;;5.36;40.68
63321;BME280;49449;48.800;9.534;2022-12-07T09:53:48;98603.81;;;5.23;38.50
63321;BME280;49449;48.800;9.534;2022-12-07T09:56:18;98600.81;;;5.26;39.39
63321;BME280;49449;48.800;9.534;2022-12-07T09:58:46;98595.16;;;5.22;39.25
63321;BME280;49449;48.800;9.534;2022-12-07T10:01:16;98595.94;;;5.23;40.29
63321;BME280;49449;48.800;9.534;2022-12-07T10:03:50;98597.09;;;5.42;40.97
63321;BME280;49449;48.800;9.534;2022-12-07T10:06:18;98586.31;;;5.30;39.00
63321;BME280;49449;48.800;9.534;2022-12-07T10:08:48;98582.16;;;5.36;38.43
63321;BME280;49449;48.800;9.534;2022-12-07T10:11:16;98582.13;;;4.79;38.68
63321;BME280;49449;48.800;9.534;2022-12-07T10:13:46;98583.91;;;4.79;39.81
63321;BME280;49449;48.800;9.534;2022-12-07T10:16:39;98587.38;;;4.86;39.07
63321;BME280;49449;48.800;9.534;2022-12-07T10:19:23;98578.94;;;5.12;39.92
63321;BME280;49449;48.800;9.534;2022-12-07T10:22:09;98579.09;;;5.32;40.17
63321;BME280;49449;48.800;9.534;2022-12-07T10:24:40;98582.22;;;5.49;38.57
63321;BME280;49449;48.800;9.534;2022-12-07T10:27:21;98577.81;;;5.56;38.98
63321;BME280;49449;48.800;9.534;2022-12-07T10:29:51;98583.56;;;5.73;38.56
63321;BME280;49449;48.800;9.534;2022-12-07T10:32:32;98577.31;;;5.81;38.07
63321;BME280;49449;48.800;9.534;2022-12-07T10:35:22;98572.72;;;5.89;37.92
63321;BME280;49449;48.800;9.534;2022-12-07T10:37:51;98562.84;;;5.85;37.83
63321;BME280;49449;48.800;9.534;2022-12-07T10:40:32;98566.00;;;5.74;38.96
63321;BME280;49449;48.800;9.534;2022-12-07T10:43:03;98570.88;;;5.77;38.72
63321;BME280;49449;48.800;9.534;2022-12-07T10:45:32;98563.81;;;5.77;39.35
63321;BME280;49449;48.800;9.534;2022-12-07T10:48:06;98563.41;;;5.80;40.69
63321;BME280;49449;48.800;9.534;2022-12-07T10:50:47;98562.00;;;5.84;40.31
63321;BME280;49449;48.800;9.534;2022-12-07T10:53:40;98564.84;;;5.89;40.35
63321;BME280;49449;48.800;9.534;2022-12-07T10:56:26;98564.28;;;5.94;41.20
63321;BME280;49449;48.800;9.534;2022-12-07T10:59:11;98559.88;;;6.01;41.64
63321;BME280;49449;48.800;9.534;2022-12-07T11:01:50;98548.38;;;6.02;39.81
63321;BME280;49449;48.800;9.534;2022-12-07T11:04:31;98543.31;;;6.07;41.44
63321;BME280;49449;48.800;9.534;2022-12-07T11:07:06;98539.50;;;6.03;40.89
63321;BME280;49449;48.800;9.534;2022-12-07T11:09:58;98540.69;;;5.94;41.12
63321;BME280;49449;48.800;9.534;2022-12-07T11:12:43;98541.50;;;6.01;40.26
63321;BME280;49449;48.800;9.534;2022-12-07T11:15:26;98538.50;;;6.04;38.05
63321;BME280;49449;48.800;9.534;2022-12-07T11:18:03;98534.06;;;6.05;41.55
63321;BME280;49449;48.800;9.534;2022-12-07T11:20:39;98529.03;;;6.10;41.18
63321;BME280;49449;48.800;9.534;2022-12-07T11:23:17;98527.81;;;6.13;41.16
63321;BME280;49449;48.800;9.534;2022-12-07T11:25:53;98538.50;;;6.11;40.98
63321;BME280;49449;48.800;9.534;2022-12-07T11:28:35;98526.19;;;6.12;41.12
63321;BME280;49449;48.800;9.534;2022-12-07T11:31:12;98521.16;;;6.17;40.51
63321;BME280;49449;48.800;9.534;2022-12-07T11:33:47;98525.81;;;6.21;39.94
63321;BME280;49449;48.800;9.534;2022-12-07T11:36:31;98524.41;;;6.19;41.21
63321;BME280;49449;48.800;9.534;2022-12-07T11:39:04;98513.72;;;6.20;40.30
63321;BME280;49449;48.800;9.534;2022-12-07T11:41:39;98519.56;;;6.22;40.63
63321;BME280;49449;48.800;9.534;2022-12-07T11:44:21;98511.06;;;6.14;37.82
63321;BME280;49449;48.800;9.534;2022-12-07T11:46:56;98505.00;;;6.06;39.86
63321;BME280;49449;48.800;9.534;2022-12-07T11:49:34;98501.38;;;6.01;38.48
63321;BME280;49449;48.800;9.534;2022-12-07T11:52:11;98503.75;;;5.89;38.53
63321;BME280;49449;48.800;9.534;2022-12-07T11:54:42;98496.50;;;5.91;38.81
63321;BME280;49449;48.800;9.534;2022-12-07T11:57:16;98497.09;;;5.93;38.50
63321;BME280;49449;48.800;9.534;2022-12-07T11:59:50;98489.63;;;5.97;40.72
63321;BME280;49449;48.800;9.534;2022-12-07T12:02:23;98491.88;;;6.00;38.61
63321;BME280;49449;48.800;9.534;2022-12-07T12:04:56;98494.50;;;6.00;41.15
63321;BME280;49449;48.800;9.534;2022-12-07T12:07:27;98492.28;;;6.03;37.92
63321;BME280;49449;48.800;9.534;2022-12-07T12:10:19;98481.72;;;5.77;37.25
63321;BME280;49449;48.800;9.534;2022-12-07T12:13:18;98483.03;;;5.52;38.34
63321;BME280;49449;48.800;9.534;2022-12-07T12:19:15;98477.91;;;5.86;40.67
63321;BME280;49449;48.800;9.534;2022-12-07T12:21:49;98477.97;;;5.99;40.64
63321;BME280;49449;48.800;9.534;2022-12-07T12:24:25;98475.53;;;6.04;41.51
63321;BME280;49449;48.800;9.534;2022-12-07T12:27:01;98479.78;;;6.05;41.30
63321;BME280;49449;48.800;9.534;2022-12-07T12:29:33;98469.28;;;6.05;40.67
63321;BME280;49449;48.800;9.534;2022-12-07T12:32:11;98479.38;;;6.08;40.70
63321;BME280;49449;48.800;9.534;2022-12-07T12:34:42;98474.31;;;6.07;40.27
63321;BME280;49449;48.800;9.534;2022-12-07T12:37:44;98473.13;;;6.03;40.46
63321;BME280;49449;48.800;9.534;2022-12-07T12:43:42;98475.13;;;6.07;43.81
63321;BME280;49449;48.800;9.534;2022-12-07T12:49:35;98471.50;;;6.02;44.37
63321;BME280;49449;48.800;9.534;2022-12-07T12:58:25;98470.28;;;5.98;44.60
63321;BME280;49449;48.800;9.534;2022-12-07T13:04:29;98461.19;;;5.87;41.47
63321;BME280;49449;48.800;9.534;2022-12-07T13:07:03;98456.94;;;5.86;44.23
63321;BME280;49449;48.800;9.534;2022-12-07T13:09:33;98452.72;;;5.92;42.63
63321;BME280;49449;48.800;9.534;2022-12-07T13:12:05;98449.66;;;5.75;41.40
63321;BME280;49449;48.800;9.534;2022-12-07T13:14:41;98447.22;;;5.73;42.26
63321;BME280;49449;48.800;9.534;2022-12-07T13:17:10;98441.59;;;5.83;42.33
63321;BME280;49449;48.800;9.534;2022-12-07T13:19:58;98437.19;;;5.83;43.14
63321;BME280;49449;48.800;9.534;2022-12-07T13:22:53;98444.63;;;5.80;40.70
63321;BME280;49449;48.800;9.534;2022-12-07T13:25:31;98442.75;;;5.67;40.74
63321;BME280;49449;48.800;9.534;2022-12-07T13:28:09;98439.53;;;5.65;41.47
63321;BME280;49449;48.800;9.534;2022-12-07T13:30:47;98446.19;;;5.61;41.44
63321;BME280;49449;48.800;9.534;2022-12-07T13:33:19;98440.16;;;5.67;42.25
63321;BME280;49449;48.800;9.534;2022-12-07T13:35:47;98443.19;;;5.70;41.34
63321;BME280;49449;48.800;9.534;2022-12-07T13:38:34;98440.38;;;5.72;43.14
63321;BME280;49449;48.800;9.534;2022-12-07T13:41:12;98440.78;;;5.69;42.50
63321;BME280;49449;48.800;9.534;2022-12-07T13:43:44;98437.91;;;5.57;41.44
63321;BME280;49449;48.800;9.534;2022-12-07T13:46:13;98445.16;;;5.55;42.74
63321;BME280;49449;48.800;9.534;2022-12-07T13:48:46;98440.31;;;5.52;43.47
63321;BME280;49449;48.800;9.534;2022-12-07T13:51:19;98441.38;;;5.64;42.37
63321;BME280;49449;48.800;9.534;2022-12-07T13:53:52;98439.16;;;5.68;43.05